createdAt,value
2019-05-01T00:01:37.660Z,85.06
2019-05-01T00:04:14.358Z,85.09
2019-05-01T00:06:51.300Z,85.31
2019-05-01T00:09:20.922Z,85.17
2019-05-01T00:11:50.246Z,85.17
2019-05-01T00:14:19.620Z,85.19
2019-05-01T00:16:49.627Z,85.20
2019-05-01T00:19:18.995Z,84.94
2019-05-01T00:21:48.411Z,84.67
2019-05-01T00:24:17.799Z,84.74
2019-05-01T00:26:47.192Z,84.78
2019-05-01T00:29:16.582Z,84.85
2019-05-01T00:31:45.889Z,84.78
2019-05-01T00:34:15.240Z,84.78
2019-05-01T00:36:44.741Z,84.49
2019-05-01T00:39:14.368Z,84.62
2019-05-01T00:41:43.677Z,84.83
2019-05-01T00:44:13.139Z,84.60
2019-05-01T00:46:42.355Z,84.34
2019-05-01T00:49:11.786Z,84.38
2019-05-01T00:51:41.167Z,84.26
2019-05-01T00:54:10.677Z,84.12
2019-05-01T00:56:44.404Z,84.02
2019-05-01T00:59:30.707Z,83.74
2019-05-01T01:02:07.649Z,83.94
2019-05-01T01:04:38.545Z,83.98
2019-05-01T01:07:07.913Z,83.86
2019-05-01T01:09:37.268Z,83.90
2019-05-01T01:12:06.737Z,83.81
2019-05-01T01:14:36.101Z,83.98
2019-05-01T01:17:05.525Z,83.85
2019-05-01T01:19:34.973Z,83.51
2019-05-01T01:22:04.478Z,83.74
2019-05-01T01:24:33.853Z,83.44
2019-05-01T01:27:05.006Z,83.22
2019-05-01T01:29:34.378Z,83.01
2019-05-01T01:32:04.471Z,82.83
2019-05-01T01:34:33.864Z,82.71
2019-05-01T01:37:03.229Z,82.25
2019-05-01T01:39:32.889Z,82.25
2019-05-01T01:42:02.803Z,81.99
2019-05-01T01:44:47.399Z,82.33
2019-05-01T01:47:17.249Z,82.19
2019-05-01T01:49:46.811Z,81.91
2019-05-01T01:52:16.464Z,82.24
2019-05-01T01:54:46.062Z,82.24
2019-05-01T01:57:15.929Z,82.01
2019-05-01T01:59:45.585Z,81.77
2019-05-01T02:02:22.444Z,81.83
2019-05-01T02:04:53.648Z,81.97
2019-05-01T02:07:23.101Z,81.17
2019-05-01T02:09:52.763Z,81.23
2019-05-01T02:12:22.713Z,81.46
2019-05-01T02:14:52.081Z,81.37
2019-05-01T02:17:21.695Z,81.02
2019-05-01T02:19:51.117Z,81.37
2019-05-01T02:22:20.475Z,81.62
2019-05-01T02:24:49.811Z,80.99
2019-05-01T02:27:21.147Z,81.28
2019-05-01T02:29:55.243Z,81.04
2019-05-01T02:32:29.132Z,80.71
2019-05-01T02:35:00.203Z,80.55
2019-05-01T02:37:31.511Z,80.26
2019-05-01T02:40:03.576Z,80.10
2019-05-01T02:42:35.365Z,80.23
2019-05-01T02:45:05.813Z,80.50
2019-05-01T02:47:37.783Z,80.58
2019-05-01T02:50:10.073Z,80.65
2019-05-01T02:52:41.941Z,80.57
2019-05-01T02:55:15.345Z,80.86
2019-05-01T02:57:47.030Z,80.70
2019-05-01T03:00:17.875Z,80.88
2019-05-01T03:02:47.876Z,80.72
2019-05-01T03:05:17.214Z,80.76
2019-05-01T03:07:46.872Z,80.93
2019-05-01T03:10:16.856Z,80.68
2019-05-01T03:12:49.155Z,80.84
2019-05-01T03:15:20.955Z,81.08
2019-05-01T03:17:52.565Z,81.22
2019-05-01T03:20:24.469Z,81.26
2019-05-01T03:23:12.436Z,81.30
2019-05-01T03:25:42.691Z,81.25
2019-05-01T03:28:12.922Z,81.17
2019-05-01T03:30:42.326Z,81.33
2019-05-01T03:33:11.676Z,81.15
2019-05-01T03:35:41.550Z,81.37
2019-05-01T03:38:11.398Z,81.29
2019-05-01T03:40:41.924Z,81.41
2019-05-01T03:43:12.899Z,81.61
2019-05-01T03:45:43.458Z,81.70
2019-05-01T03:48:13.134Z,81.60
2019-05-01T03:50:46.490Z,81.68
2019-05-01T03:53:14.046Z,81.73
2019-05-01T03:55:43.427Z,81.97
2019-05-01T03:58:12.812Z,82.08
2019-05-01T04:00:46.689Z,82.41
2019-05-01T04:03:23.524Z,82.53
2019-05-01T04:05:53.084Z,82.84
2019-05-01T04:08:22.552Z,83.10
2019-05-01T04:10:52.340Z,83.44
2019-05-01T04:13:21.865Z,83.60
2019-05-01T04:15:52.973Z,83.75
2019-05-01T04:18:22.689Z,84.07
2019-05-01T04:20:52.475Z,84.20
2019-05-01T04:23:22.249Z,84.41
2019-05-01T04:25:52.156Z,84.42
2019-05-01T04:28:39.608Z,84.59
2019-05-01T04:31:23.285Z,84.66
2019-05-01T04:33:54.893Z,84.78
2019-05-01T04:36:34.801Z,84.79
2019-05-01T04:39:06.693Z,84.82
2019-05-01T04:41:37.042Z,84.81
2019-05-01T04:44:06.952Z,85.15
2019-05-01T04:46:36.704Z,84.95
2019-05-01T04:49:06.457Z,84.86
2019-05-01T04:51:36.487Z,84.77
2019-05-01T04:54:06.033Z,84.56
2019-05-01T04:56:35.798Z,84.67
2019-05-01T04:59:05.681Z,84.74
2019-05-01T05:01:57.061Z,84.62
2019-05-01T05:04:27.091Z,84.45
2019-05-01T05:06:56.748Z,84.55
2019-05-01T05:09:39.921Z,84.66
2019-05-01T05:12:11.333Z,84.56
2019-05-01T05:14:43.407Z,84.71
2019-05-01T05:17:14.543Z,84.74
2019-05-01T05:19:44.124Z,84.64
2019-05-01T05:22:16.448Z,85.05
2019-05-01T05:24:45.850Z,85.47
2019-05-01T05:27:16.361Z,85.92
2019-05-01T05:29:47.900Z,86.14
2019-05-01T05:32:19.220Z,86.09
2019-05-01T05:34:50.479Z,86.30
2019-05-01T05:37:22.194Z,86.38
2019-05-01T05:39:52.940Z,86.51
2019-05-01T05:42:22.440Z,86.79
2019-05-01T05:44:51.816Z,86.87
2019-05-01T05:47:21.467Z,87.11
2019-05-01T05:49:51.660Z,87.36
2019-05-01T05:52:25.786Z,87.48
2019-05-01T05:55:08.140Z,87.61
2019-05-01T05:57:56.104Z,87.70
2019-05-01T06:00:44.595Z,87.87
2019-05-01T06:03:35.172Z,87.94
2019-05-01T06:06:17.793Z,87.85
2019-05-01T06:08:50.157Z,87.88
2019-05-01T06:11:40.096Z,88.04
2019-05-01T06:14:31.350Z,87.98
2019-05-01T06:17:07.533Z,87.79
2019-05-01T06:19:49.681Z,87.71
2019-05-01T06:22:20.641Z,87.78
2019-05-01T06:25:21.487Z,87.56
2019-05-01T06:27:44.778Z,87.61
2019-05-01T06:30:12.764Z,87.49
2019-05-01T06:32:42.472Z,87.29
2019-05-01T06:35:11.945Z,87.30
2019-05-01T06:38:02.247Z,87.35
2019-05-01T06:40:40.787Z,87.27
2019-05-01T06:43:27.258Z,87.17
2019-05-01T06:46:13.722Z,87.22
2019-05-01T06:48:53.376Z,87.12
2019-05-01T06:51:35.230Z,87.18
2019-05-01T06:54:11.325Z,87.20
2019-05-01T06:56:42.203Z,87.24
2019-05-01T06:59:12.640Z,87.14
2019-05-01T07:01:42.384Z,87.28
2019-05-01T07:04:14.184Z,87.33
2019-05-01T07:06:43.564Z,87.33
2019-05-01T07:09:17.286Z,87.14
2019-05-01T07:11:47.521Z,87.13
2019-05-01T07:14:17.605Z,87.12
2019-05-01T07:16:47.356Z,87.02
2019-05-01T07:19:18.326Z,86.98
2019-05-01T07:21:48.008Z,87.01
2019-05-01T07:24:17.811Z,86.98
2019-05-01T07:26:48.105Z,86.92
2019-05-01T07:29:22.647Z,86.58
2019-05-01T07:31:52.129Z,86.46
2019-05-01T07:34:25.789Z,86.46
2019-05-01T07:36:52.815Z,86.24
2019-05-01T07:39:22.336Z,86.05
2019-05-01T07:41:52.007Z,85.71
2019-05-01T07:44:35.181Z,85.87
2019-05-01T07:47:12.130Z,85.51
2019-05-01T07:49:57.093Z,85.35
2019-05-01T07:52:28.140Z,85.01
2019-05-01T07:54:58.219Z,84.90
2019-05-01T07:57:28.485Z,84.59
2019-05-01T08:00:03.109Z,84.46
2019-05-01T08:02:30.978Z,84.15
2019-05-01T08:05:04.946Z,83.75
2019-05-01T08:07:33.601Z,84.08
2019-05-01T08:10:03.024Z,84.02
2019-05-01T08:12:32.463Z,83.75
2019-05-01T08:15:02.860Z,83.57
2019-05-01T08:17:33.864Z,83.54
2019-05-01T08:20:21.076Z,83.33
2019-05-01T08:22:50.523Z,83.31
2019-05-01T08:25:19.945Z,82.97
2019-05-01T08:27:58.131Z,82.70
2019-05-01T08:30:32.170Z,82.62
2019-05-01T08:33:03.114Z,82.20
2019-05-01T08:35:36.518Z,81.87
2019-05-01T08:38:04.190Z,81.67
2019-05-01T08:40:33.686Z,81.39
2019-05-01T08:43:03.068Z,81.57
2019-05-01T08:45:50.626Z,81.22
2019-05-01T08:48:35.857Z,80.67
2019-05-01T08:51:05.294Z,80.85
2019-05-01T08:53:34.663Z,80.62
2019-05-01T08:56:04.122Z,80.34
2019-05-01T08:58:38.336Z,79.88
2019-05-01T09:01:10.768Z,79.98
2019-05-01T09:03:42.250Z,79.94
2019-05-01T09:06:13.979Z,79.75
2019-05-01T09:08:46.553Z,79.65
2019-05-01T09:11:15.913Z,79.63
2019-05-01T09:13:45.311Z,79.23
2019-05-01T09:16:14.858Z,79.23
2019-05-01T09:18:44.215Z,79.41
2019-05-01T09:21:13.751Z,79.14
2019-05-01T09:23:46.113Z,79.37
2019-05-01T09:26:18.992Z,79.11
2019-05-01T09:28:53.001Z,79.34
2019-05-01T09:31:24.012Z,79.19
2019-05-01T09:33:53.602Z,79.60
2019-05-01T09:36:23.116Z,79.45
2019-05-01T09:38:52.406Z,79.07
2019-05-01T09:41:21.801Z,78.68
2019-05-01T09:43:51.460Z,77.20
2019-05-01T09:46:22.763Z,76.65
2019-05-01T09:48:52.330Z,76.98
2019-05-01T09:51:29.731Z,76.98
2019-05-01T09:54:05.703Z,77.19
2019-05-01T09:56:35.036Z,76.97
2019-05-01T09:59:04.517Z,76.56
2019-05-01T10:01:34.281Z,75.84
2019-05-01T10:04:05.583Z,75.31
2019-05-01T10:06:34.745Z,74.79
2019-05-01T10:09:07.208Z,75.14
2019-05-01T10:11:40.596Z,75.57
2019-05-01T10:14:09.175Z,75.55
2019-05-01T10:16:38.574Z,75.73
2019-05-01T10:19:07.885Z,75.47
2019-05-01T10:21:37.254Z,75.65
2019-05-01T10:24:06.602Z,75.16
2019-05-01T10:26:37.621Z,75.68
2019-05-01T10:29:08.854Z,75.68
2019-05-01T10:31:56.203Z,75.83
2019-05-01T10:34:27.171Z,75.50
2019-05-01T10:36:56.607Z,74.95
2019-05-01T10:39:26.400Z,75.25
2019-05-01T10:41:55.739Z,75.17
2019-05-01T10:44:25.178Z,75.55
2019-05-01T10:46:54.567Z,75.26
2019-05-01T10:49:23.939Z,75.48
2019-05-01T10:51:53.307Z,75.72
2019-05-01T10:54:22.718Z,75.62
2019-05-01T10:56:52.259Z,74.92
2019-05-01T10:59:21.675Z,74.14
2019-05-01T11:01:55.068Z,74.65
2019-05-01T11:04:24.929Z,74.68
2019-05-01T11:06:54.313Z,75.00
2019-05-01T11:09:23.818Z,74.45
2019-05-01T11:11:53.305Z,72.35
2019-05-01T11:14:22.679Z,72.04
2019-05-01T11:16:52.193Z,71.51
2019-05-01T11:19:21.670Z,71.87
2019-05-01T11:21:53.427Z,72.09
2019-05-01T11:24:22.864Z,71.78
2019-05-01T11:26:52.329Z,70.33
2019-05-01T11:29:21.641Z,69.67
2019-05-01T11:31:58.753Z,68.42
2019-05-01T11:34:29.758Z,67.26
2019-05-01T11:37:06.893Z,66.45
2019-05-01T11:39:40.851Z,65.50
2019-05-01T11:42:13.653Z,65.21
2019-05-01T11:44:43.034Z,65.72
2019-05-01T11:47:12.527Z,66.39
2019-05-01T11:49:42.005Z,65.81
2019-05-01T11:52:11.309Z,64.85
2019-05-01T11:54:40.684Z,62.33
2019-05-01T11:57:10.102Z,62.00
2019-05-01T11:59:39.408Z,61.06
2019-05-01T12:02:08.770Z,60.52
2019-05-01T12:04:38.181Z,61.12
2019-05-01T12:07:07.536Z,63.25
2019-05-01T12:09:36.910Z,63.50
2019-05-01T12:12:07.965Z,64.44
2019-05-01T12:14:37.250Z,64.46
2019-05-01T12:17:08.181Z,63.83
2019-05-01T12:19:37.529Z,64.08
2019-05-01T12:22:06.960Z,64.71
2019-05-01T12:24:36.353Z,64.45
2019-05-01T12:27:05.961Z,63.61
2019-05-01T12:29:35.383Z,64.27
2019-05-01T12:32:04.856Z,64.67
2019-05-01T12:34:34.357Z,64.58
2019-05-01T12:37:17.255Z,63.95
2019-05-01T12:39:47.700Z,63.17
2019-05-01T12:42:18.722Z,62.91
2019-05-01T12:44:48.084Z,62.80
2019-05-01T12:47:19.131Z,63.11
2019-05-01T12:49:50.148Z,63.01
2019-05-01T12:52:37.613Z,63.42
2019-05-01T12:55:26.011Z,63.07
2019-05-01T12:57:55.573Z,62.85
2019-05-01T13:00:50.443Z,63.03
2019-05-01T13:03:19.853Z,63.55
2019-05-01T13:05:49.157Z,64.44
2019-05-01T13:08:18.533Z,66.42
2019-05-01T13:10:49.339Z,68.45
2019-05-01T13:13:18.664Z,69.35
2019-05-01T13:15:48.057Z,70.80
2019-05-01T13:18:17.440Z,71.53
2019-05-01T13:20:46.816Z,72.24
2019-05-01T13:23:16.165Z,72.03
2019-05-01T13:25:46.243Z,72.79
2019-05-01T13:28:17.259Z,73.49
2019-05-01T13:30:48.458Z,73.37
2019-05-01T13:33:17.929Z,74.10
2019-05-01T13:35:47.222Z,74.24
2019-05-01T13:38:16.586Z,75.00
2019-05-01T13:40:46.832Z,76.77
2019-05-01T13:43:16.063Z,78.46
2019-05-01T13:45:45.476Z,77.04
2019-05-01T13:48:14.812Z,70.40
2019-05-01T13:50:44.187Z,67.83
2019-05-01T13:53:13.571Z,68.97
2019-05-01T13:55:43.077Z,69.41
2019-05-01T13:58:12.457Z,72.92
2019-05-01T14:00:41.828Z,74.04
2019-05-01T14:03:11.464Z,73.87
2019-05-01T14:05:40.914Z,73.96
2019-05-01T14:10:38.632Z,73.39
2019-05-01T14:13:07.921Z,74.01
2019-05-01T14:15:37.284Z,73.99
2019-05-01T14:18:06.706Z,73.47
2019-05-01T14:20:37.701Z,74.12
2019-05-01T14:23:26.272Z,73.98
2019-05-01T14:26:08.567Z,74.08
2019-05-01T14:28:38.003Z,73.43
2019-05-01T14:31:07.612Z,73.09
2019-05-01T14:33:37.000Z,72.51
2019-05-01T14:36:06.989Z,74.31
2019-05-01T14:38:36.378Z,73.93
2019-05-01T14:41:05.821Z,75.36
2019-05-01T14:43:35.211Z,75.80
2019-05-01T14:46:04.685Z,75.54
2019-05-01T14:48:48.257Z,75.12
2019-05-01T14:51:17.605Z,75.46
2019-05-01T14:53:47.095Z,75.56
2019-05-01T14:56:16.470Z,75.69
2019-05-01T14:58:45.832Z,75.01
2019-05-01T15:01:15.210Z,75.25
2019-05-01T15:03:44.700Z,75.46
2019-05-01T15:06:14.048Z,75.92
2019-05-01T15:08:43.346Z,76.34
2019-05-01T15:11:12.756Z,75.66
2019-05-01T15:13:43.704Z,71.00
2019-05-01T15:16:26.761Z,71.81
2019-05-01T15:19:09.752Z,68.63
2019-05-01T15:21:39.236Z,71.14
2019-05-01T15:24:08.611Z,69.83
2019-05-01T15:26:38.038Z,67.52
2019-05-01T15:29:07.440Z,65.89
2019-05-01T15:31:36.954Z,66.61
2019-05-01T15:34:06.263Z,67.67
2019-05-01T15:36:35.862Z,67.49
2019-05-01T15:39:09.128Z,67.63
2019-05-01T15:41:56.724Z,65.77
2019-05-01T15:44:27.684Z,66.21
2019-05-01T15:46:57.033Z,65.76
2019-05-01T15:49:26.490Z,64.95
2019-05-01T15:51:56.014Z,62.85
2019-05-01T15:54:25.383Z,63.85
2019-05-01T15:56:55.008Z,63.55
2019-05-01T15:59:24.433Z,62.20
2019-05-01T16:01:53.929Z,61.45
2019-05-01T16:04:23.465Z,61.05
2019-05-01T16:06:52.966Z,61.17
2019-05-01T16:09:22.419Z,60.88
2019-05-01T16:12:09.493Z,59.86
2019-05-01T16:14:39.340Z,60.15
2019-05-01T16:17:08.686Z,61.65
2019-05-01T16:19:38.016Z,61.90
2019-05-01T16:22:07.484Z,61.81
2019-05-01T16:24:36.854Z,63.16
2019-05-01T16:27:06.192Z,64.54
2019-05-01T16:29:35.598Z,65.15
2019-05-01T16:32:05.456Z,65.34
2019-05-01T16:34:35.609Z,65.76
2019-05-01T16:37:05.098Z,66.68
2019-05-01T16:39:36.141Z,67.62
2019-05-01T16:42:05.595Z,68.39
2019-05-01T16:44:34.985Z,68.96
2019-05-01T16:47:04.548Z,69.89
2019-05-01T16:49:33.940Z,69.82
2019-05-01T16:52:03.343Z,69.63
2019-05-01T16:54:32.726Z,70.65
2019-05-01T16:57:02.100Z,71.70
2019-05-01T16:59:31.516Z,72.70
2019-05-01T17:02:02.802Z,72.51
2019-05-01T17:04:36.731Z,70.37
2019-05-01T17:07:16.601Z,65.59
2019-05-01T17:10:02.715Z,67.76
2019-05-01T17:12:34.139Z,71.31
2019-05-01T17:15:03.594Z,73.08
2019-05-01T17:17:33.861Z,74.06
2019-05-01T17:20:03.529Z,75.67
2019-05-01T17:22:32.803Z,75.36
2019-05-01T17:25:02.563Z,75.26
2019-05-01T17:27:31.927Z,73.86
2019-05-01T17:30:01.418Z,74.49
2019-05-01T17:32:30.786Z,74.95
2019-05-01T17:35:01.980Z,75.29
2019-05-01T17:37:31.371Z,74.07
2019-05-01T17:40:00.770Z,75.73
2019-05-01T17:42:33.022Z,75.60
2019-05-01T17:45:01.226Z,73.80
2019-05-01T17:47:30.672Z,73.69
2019-05-01T17:49:59.974Z,72.89
2019-05-01T17:52:29.436Z,73.38
2019-05-01T17:55:01.238Z,73.82
2019-05-01T17:57:30.415Z,73.25
2019-05-01T18:00:01.513Z,75.10
2019-05-01T18:02:51.055Z,75.45
2019-05-01T18:05:22.024Z,73.89
2019-05-01T18:07:51.506Z,75.45
2019-05-01T18:10:20.895Z,73.82
2019-05-01T18:12:50.298Z,74.40
2019-05-01T18:15:19.870Z,74.86
2019-05-01T18:17:49.349Z,75.03
2019-05-01T18:20:19.562Z,76.09
2019-05-01T18:23:08.512Z,76.48
2019-05-01T18:25:42.305Z,76.84
2019-05-01T18:28:19.415Z,76.77
2019-05-01T18:30:51.619Z,76.59
2019-05-01T18:33:22.047Z,76.25
2019-05-01T18:35:51.606Z,76.20
2019-05-01T18:38:28.660Z,75.52
2019-05-01T18:40:59.679Z,75.23
2019-05-01T18:43:32.240Z,75.53
2019-05-01T18:46:01.083Z,75.96
2019-05-01T18:48:30.468Z,76.72
2019-05-01T18:50:59.870Z,77.00
2019-05-01T18:53:29.302Z,76.96
2019-05-01T18:56:01.474Z,77.61
2019-05-01T18:58:31.479Z,78.04
2019-05-01T19:01:03.943Z,78.05
2019-05-01T19:03:32.264Z,77.91
2019-05-01T19:06:01.801Z,78.29
2019-05-01T19:08:31.215Z,78.26
2019-05-01T19:11:11.786Z,77.83
2019-05-01T19:13:32.148Z,76.88
2019-05-01T19:16:03.437Z,76.10
2019-05-01T19:18:32.683Z,76.56
2019-05-01T19:21:02.060Z,77.02
2019-05-01T19:23:33.219Z,76.52
2019-05-01T19:26:06.463Z,76.43
2019-05-01T19:28:34.289Z,76.48
2019-05-01T19:31:03.849Z,76.20
2019-05-01T19:33:33.255Z,76.63
2019-05-01T19:36:08.347Z,76.72
2019-05-01T19:38:34.787Z,76.55
2019-05-01T19:41:08.908Z,76.63
2019-05-01T19:43:40.750Z,76.76
2019-05-01T19:46:08.263Z,76.76
2019-05-01T19:48:37.650Z,76.46
2019-05-01T19:51:07.046Z,76.41
2019-05-01T19:53:36.449Z,76.42
2019-05-01T19:56:06.027Z,76.86
2019-05-01T19:58:35.439Z,76.55
2019-05-01T20:01:06.125Z,76.33
2019-05-01T20:03:36.775Z,76.13
2019-05-01T20:06:08.203Z,75.94
2019-05-01T20:08:37.920Z,75.78
2019-05-01T20:11:09.517Z,75.83
2019-05-01T20:13:38.457Z,75.77
2019-05-01T20:16:09.260Z,76.11
2019-05-01T20:18:38.902Z,76.16
2019-05-01T20:21:08.456Z,75.69
2019-05-01T20:23:37.796Z,75.67
2019-05-01T20:26:08.181Z,75.85
2019-05-01T20:28:37.571Z,75.91
2019-05-01T20:31:07.131Z,75.65
2019-05-01T20:33:38.921Z,75.67
2019-05-01T20:36:07.572Z,75.42
2019-05-01T20:38:36.989Z,75.95
2019-05-01T20:41:10.437Z,75.53
2019-05-01T20:43:38.126Z,75.67
2019-05-01T20:46:08.584Z,75.89
2019-05-01T20:48:37.957Z,75.58
2019-05-01T20:51:07.373Z,75.50
2019-05-01T20:53:36.749Z,75.65
2019-05-01T20:56:07.759Z,75.55
2019-05-01T20:58:37.211Z,75.57
2019-05-01T21:01:06.747Z,76.04
2019-05-01T21:03:37.773Z,74.29
2019-05-01T21:06:09.199Z,74.21
2019-05-01T21:08:46.539Z,74.91
2019-05-01T21:11:17.777Z,74.73
2019-05-01T21:13:47.155Z,74.50
2019-05-01T21:16:17.825Z,74.38
2019-05-01T21:18:47.223Z,74.14
2019-05-01T21:21:16.631Z,73.95
2019-05-01T21:23:48.183Z,74.06
2019-05-01T21:26:17.146Z,73.95
2019-05-01T21:28:46.529Z,73.99
2019-05-01T21:31:15.898Z,73.52
2019-05-01T21:33:50.259Z,73.64
2019-05-01T21:36:16.404Z,74.07
2019-05-01T21:38:45.700Z,73.86
2019-05-01T21:41:16.942Z,73.64
2019-05-01T21:43:46.127Z,73.58
2019-05-01T21:46:15.686Z,73.65
2019-05-01T21:48:45.147Z,73.76
2019-05-01T21:51:14.558Z,73.73
2019-05-01T21:53:46.377Z,73.48
2019-05-01T21:56:15.184Z,73.44
2019-05-01T21:58:45.236Z,73.26
2019-05-01T22:01:14.852Z,73.05
2019-05-01T22:03:44.256Z,72.86
2019-05-01T22:06:15.420Z,72.70
2019-05-01T22:08:44.654Z,72.40
2019-05-01T22:11:13.953Z,72.25
2019-05-01T22:13:43.490Z,72.18
2019-05-01T22:16:18.482Z,72.38
2019-05-01T22:19:02.138Z,72.53
2019-05-01T22:21:41.973Z,72.44
2019-05-01T22:24:13.057Z,71.70
2019-05-01T22:26:44.069Z,71.49
2019-05-01T22:29:15.101Z,71.73
2019-05-01T22:32:02.282Z,71.30
2019-05-01T22:34:36.451Z,71.13
2019-05-01T22:37:05.968Z,71.37
2019-05-01T22:39:37.003Z,71.07
2019-05-01T22:42:06.498Z,70.73
2019-05-01T22:44:35.949Z,70.54
2019-05-01T22:47:10.247Z,69.95
2019-05-01T22:49:37.535Z,70.02
2019-05-01T22:52:06.896Z,69.96
2019-05-01T22:54:36.270Z,69.90
2019-05-01T22:57:05.673Z,69.58
2019-05-01T22:59:35.118Z,69.56
2019-05-01T23:02:06.556Z,69.22
2019-05-01T23:04:35.959Z,69.33
2019-05-01T23:07:05.415Z,69.22
2019-05-01T23:09:35.182Z,69.33
2019-05-01T23:12:04.583Z,68.80
2019-05-01T23:14:34.141Z,68.79
2019-05-01T23:17:11.287Z,69.00
2019-05-01T23:19:40.589Z,69.19
2019-05-01T23:22:10.223Z,69.28
2019-05-01T23:24:39.646Z,69.42
2019-05-01T23:27:09.042Z,69.00
2019-05-01T23:29:38.337Z,69.20
2019-05-01T23:32:07.905Z,68.62
2019-05-01T23:34:37.279Z,68.83
2019-05-01T23:37:06.654Z,68.75
2019-05-01T23:39:40.433Z,68.88
2019-05-01T23:42:07.057Z,68.76
2019-05-01T23:44:38.147Z,69.01
2019-05-01T23:47:08.404Z,68.87
2019-05-01T23:49:37.714Z,69.17
2019-05-01T23:52:07.163Z,69.15
2019-05-01T23:54:36.568Z,69.48
2019-05-01T23:57:05.955Z,69.82
2019-05-01T23:59:35.424Z,70.32
